West Donegal, Pennsylvania
Current Conditions -  °F | °C
As of 8:56 PM on Friday 28 Nov 2014 (Local Time) from KMDT Reporting Station
Scattered Clouds Scattered Clouds  
Wind Chill: 18°   Ceiling: Unl
Heat Index: 27°   Visibility: 10mi
Dew Point: 15°   Wind: 9mph
Humidity: 61%   Direction: 310°NW
Pressure: 30.27"   Gusts: NA
Location:  40.1674°N, 76.6045°W
Report Text: KMDT 290156Z 31008KT 10SM SCT220 M03/M09 A3027 RMK AO2 SLP254 T10281094
Loading
Personal Weather Stations






























Interactive Weather Map New forecast layout! Learn more

10-Day Weather Forecast

Advertisements
Track Severe Weather on mobile